createdAt,value
2022-09-28T00:03:40.591Z,3.70
2022-09-28T00:08:38.264Z,4.38
2022-09-28T00:13:39.165Z,4.25
2022-09-28T00:18:36.605Z,3.33
2022-09-28T00:23:34.099Z,3.80
2022-09-28T00:28:31.795Z,3.50
2022-09-28T00:33:31.174Z,3.80
2022-09-28T00:38:31.419Z,4.03
2022-09-28T00:43:28.673Z,3.85
2022-09-28T00:48:29.768Z,4.05
2022-09-28T00:53:32.108Z,3.47
2022-09-28T00:58:36.594Z,3.40
2022-09-28T01:03:34.828Z,2.92
2022-09-28T01:08:34.498Z,3.00
2022-09-28T01:13:33.720Z,3.30
2022-09-28T01:18:52.774Z,2.90
2022-09-28T01:24:24.399Z,3.10
2022-09-28T01:29:44.375Z,3.20
2022-09-28T01:34:54.084Z,2.85
2022-09-28T01:39:54.323Z,2.70
2022-09-28T01:50:03.168Z,2.65
2022-09-28T01:55:26.533Z,2.60
2022-09-28T02:00:25.427Z,2.55
2022-09-28T02:05:45.899Z,2.20
2022-09-28T02:11:00.983Z,2.00
2022-09-28T02:16:15.287Z,2.55
2022-09-28T02:21:28.359Z,2.25
2022-09-28T02:26:45.390Z,2.47
2022-09-28T02:31:42.899Z,2.08
2022-09-28T02:36:40.658Z,3.53
2022-09-28T02:41:42.348Z,2.05
2022-09-28T02:46:59.063Z,1.88
2022-09-28T02:52:15.659Z,2.00
2022-09-28T02:57:34.984Z,2.20
2022-09-28T03:03:06.706Z,2.30
2022-09-28T03:08:13.627Z,2.30
2022-09-28T03:13:13.478Z,2.40
2022-09-28T03:18:11.110Z,2.28
2022-09-28T03:23:25.349Z,2.60
2022-09-28T03:28:23.447Z,1.85
2022-09-28T03:33:20.677Z,1.73
2022-09-28T03:38:19.538Z,2.22
2022-09-28T03:43:16.851Z,2.78
2022-09-28T03:48:14.228Z,2.10
2022-09-28T03:53:12.528Z,4.25
2022-09-28T03:58:11.846Z,1.67
2022-09-28T04:03:10.102Z,2.50
2022-09-28T04:08:07.565Z,2.50
2022-09-28T04:13:04.856Z,2.40
2022-09-28T04:18:02.313Z,2.60
2022-09-28T04:22:59.641Z,2.65
2022-09-28T04:28:15.117Z,2.97
2022-09-28T04:33:12.297Z,2.30
2022-09-28T04:38:09.479Z,2.60
2022-09-28T04:43:06.650Z,2.72
2022-09-28T04:48:07.961Z,2.97
2022-09-28T04:53:05.205Z,3.03
2022-09-28T04:58:04.698Z,2.92
2022-09-28T05:03:02.906Z,2.43
2022-09-28T05:08:00.207Z,1.88
2022-09-28T05:12:57.556Z,2.70
2022-09-28T05:17:54.760Z,2.40
2022-09-28T05:22:52.045Z,2.45
2022-09-28T05:27:49.257Z,2.45
2022-09-28T05:32:46.631Z,2.45
2022-09-28T05:37:44.278Z,3.28
2022-09-28T05:42:42.281Z,2.80
2022-09-28T05:47:41.861Z,2.28
2022-09-28T05:52:39.456Z,2.63
2022-09-28T05:57:36.940Z,3.17
2022-09-28T06:02:34.230Z,2.78
2022-09-28T06:07:31.532Z,2.22
2022-09-28T06:12:28.821Z,3.03
2022-09-28T06:17:31.965Z,3.67
2022-09-28T06:22:29.150Z,3.22
2022-09-28T06:27:26.474Z,3.47
2022-09-28T06:32:23.766Z,2.92
2022-09-28T06:37:21.074Z,2.80
2022-09-28T06:42:19.509Z,3.40
2022-09-28T06:47:17.795Z,2.70
2022-09-28T06:52:15.142Z,3.10
2022-09-28T06:57:12.590Z,2.45
2022-09-28T07:02:16.757Z,2.85
2022-09-28T07:07:14.366Z,3.80
2022-09-28T07:12:13.614Z,2.47
2022-09-28T07:17:13.999Z,1.90
2022-09-28T07:22:18.490Z,2.13
2022-09-28T07:27:17.269Z,2.30
2022-09-28T07:32:14.819Z,1.70
2022-09-28T07:37:13.478Z,1.67
2022-09-28T07:42:11.102Z,1.52
2022-09-28T07:47:09.672Z,1.63
2022-09-28T07:52:07.060Z,1.30
2022-09-28T07:57:07.098Z,0.80
2022-09-28T08:02:04.545Z,1.13
2022-09-28T08:07:03.290Z,1.10
2022-09-28T08:12:00.511Z,2.65
2022-09-28T08:16:58.109Z,0.98
2022-09-28T08:21:55.434Z,0.90
2022-09-28T08:26:53.594Z,0.60
2022-09-28T08:31:50.831Z,1.02
2022-09-28T08:36:48.103Z,1.08
2022-09-28T08:41:54.214Z,0.75
2022-09-28T08:47:00.344Z,1.20
2022-09-28T08:52:13.658Z,0.90
2022-09-28T08:57:20.686Z,0.80
2022-09-28T09:02:27.279Z,0.70
2022-09-28T09:07:44.134Z,0.80
2022-09-28T09:13:03.612Z,1.00
2022-09-28T09:18:24.724Z,0.80
2022-09-28T09:23:36.733Z,0.65
2022-09-28T09:29:02.136Z,1.08
2022-09-28T09:34:11.678Z,0.88
2022-09-28T09:39:26.295Z,0.90
2022-09-28T09:45:11.074Z,0.70
2022-09-28T09:50:39.649Z,1.00
2022-09-28T09:55:47.424Z,1.00
2022-09-28T10:00:47.489Z,0.85
2022-09-28T10:05:51.167Z,0.60
2022-09-28T10:11:07.836Z,0.75
2022-09-28T10:16:07.037Z,0.70
2022-09-28T10:21:04.799Z,0.73
2022-09-28T10:26:15.960Z,0.90
2022-09-28T10:31:35.658Z,0.93
2022-09-28T10:36:42.526Z,0.80
2022-09-28T10:41:50.160Z,0.50
2022-09-28T10:46:57.113Z,0.90
2022-09-28T10:51:56.554Z,1.00
2022-09-28T10:56:55.555Z,0.82
2022-09-28T11:02:20.806Z,0.50
2022-09-28T11:07:26.437Z,0.80
2022-09-28T11:12:26.547Z,0.80
2022-09-28T11:17:27.438Z,0.77
2022-09-28T11:22:33.934Z,0.60
2022-09-28T11:27:31.389Z,0.70
2022-09-28T11:32:44.798Z,0.65
2022-09-28T11:38:16.798Z,0.80
2022-09-28T11:43:25.001Z,0.50
2022-09-28T11:48:32.435Z,0.68
2022-09-28T11:53:41.957Z,0.55
2022-09-28T11:58:47.261Z,0.57
2022-09-28T12:03:50.509Z,0.82
2022-09-28T12:08:54.325Z,0.90
2022-09-28T12:13:54.411Z,0.95
2022-09-28T12:19:23.615Z,0.88
2022-09-28T12:24:44.343Z,0.60
2022-09-28T12:34:43.385Z,0.93
2022-09-28T12:39:59.933Z,0.60
2022-09-28T12:45:27.924Z,0.90
2022-09-28T12:50:54.668Z,0.98
2022-09-28T12:56:04.745Z,1.20
2022-09-28T13:01:33.041Z,1.10
2022-09-28T13:06:36.490Z,0.90
2022-09-28T13:11:37.608Z,1.23
2022-09-28T13:17:56.683Z,1.27
2022-09-28T13:23:18.164Z,1.05
2022-09-28T13:28:16.924Z,1.48
2022-09-28T13:33:37.065Z,1.30
2022-09-28T13:38:49.660Z,1.47
2022-09-28T13:44:11.032Z,2.20
2022-09-28T13:49:48.141Z,1.00
2022-09-28T13:54:54.171Z,1.27
2022-09-28T14:00:03.292Z,1.30
2022-09-28T14:05:04.798Z,0.98
2022-09-28T14:10:18.427Z,1.02
2022-09-28T14:15:39.618Z,1.10
2022-09-28T14:20:37.358Z,1.55
2022-09-28T14:25:42.814Z,1.20
2022-09-28T14:30:43.391Z,1.40
2022-09-28T14:35:41.726Z,1.35
2022-09-28T14:41:09.690Z,1.40
2022-09-28T14:46:17.213Z,1.52
2022-09-28T14:51:26.966Z,1.70
2022-09-28T14:56:27.058Z,1.30
2022-09-28T15:01:28.311Z,1.33
2022-09-28T15:06:46.115Z,1.52
2022-09-28T15:11:43.547Z,1.65
2022-09-28T15:16:40.838Z,1.75
2022-09-28T15:21:41.090Z,1.67
2022-09-28T15:26:38.374Z,1.85
2022-09-28T15:31:36.580Z,1.40
2022-09-28T15:36:41.099Z,1.70
2022-09-28T15:41:38.419Z,2.80
2022-09-28T15:46:39.035Z,2.13
2022-09-28T15:51:53.011Z,1.42
2022-09-28T15:56:59.949Z,1.52
2022-09-28T16:02:22.787Z,1.90
2022-09-28T16:07:39.826Z,1.98
2022-09-28T16:12:38.133Z,2.60
2022-09-28T16:17:36.772Z,3.60
2022-09-28T16:22:34.099Z,2.30
2022-09-28T16:27:43.055Z,3.10
2022-09-28T16:32:57.377Z,3.92
2022-09-28T16:37:57.471Z,3.45
2022-09-28T16:42:58.472Z,2.80
2022-09-28T16:47:57.478Z,3.17
2022-09-28T16:53:30.945Z,3.10
2022-09-28T16:58:34.965Z,2.45
2022-09-28T17:03:32.327Z,2.20
2022-09-28T17:08:29.729Z,2.50
2022-09-28T17:13:33.584Z,2.33
2022-09-28T17:18:32.320Z,2.35
2022-09-28T17:23:29.569Z,3.22
2022-09-28T17:28:31.479Z,2.80
2022-09-28T17:33:29.974Z,2.95
2022-09-28T17:38:30.674Z,2.72
2022-09-28T17:43:27.940Z,3.20
2022-09-28T17:48:26.016Z,2.60
2022-09-28T17:53:23.236Z,2.85
2022-09-28T17:58:22.536Z,3.30
2022-09-28T18:03:30.657Z,2.67
2022-09-28T18:08:28.337Z,4.63
2022-09-28T18:13:26.521Z,3.45
2022-09-28T18:18:24.785Z,3.38
2022-09-28T18:23:22.433Z,3.55
2022-09-28T18:28:20.909Z,4.35
2022-09-28T18:33:18.921Z,4.90
2022-09-28T18:38:16.059Z,4.03
2022-09-28T18:43:13.363Z,3.42
2022-09-28T18:48:11.052Z,4.05
2022-09-28T18:53:12.817Z,2.90
2022-09-28T18:58:11.784Z,2.78
2022-09-28T19:03:11.589Z,3.00
2022-09-28T19:08:09.022Z,2.80
2022-09-28T19:13:06.467Z,3.25
2022-09-28T19:18:04.138Z,4.30
2022-09-28T19:23:01.765Z,4.95
2022-09-28T19:27:59.092Z,4.20
2022-09-28T19:32:56.365Z,3.85
2022-09-28T19:37:53.931Z,4.22
2022-09-28T19:42:52.142Z,3.92
2022-09-28T19:47:49.662Z,3.88
2022-09-28T19:52:46.945Z,3.92
2022-09-28T19:57:48.212Z,4.15
2022-09-28T20:02:45.453Z,3.38
2022-09-28T20:07:43.100Z,3.92
2022-09-28T20:12:42.595Z,4.30
2022-09-28T20:17:39.946Z,4.65
2022-09-28T20:22:37.431Z,4.70
2022-09-28T20:27:34.825Z,3.80
2022-09-28T20:32:32.894Z,4.00
2022-09-28T20:37:31.087Z,3.53
2022-09-28T20:42:32.201Z,5.28
2022-09-28T20:47:29.971Z,3.97
2022-09-28T20:52:27.370Z,4.90
2022-09-28T20:57:25.044Z,3.92
2022-09-28T21:02:25.639Z,3.90
2022-09-28T21:07:22.936Z,3.58
2022-09-28T21:12:20.496Z,3.83
2022-09-28T21:17:18.051Z,3.80
2022-09-28T21:22:15.157Z,3.17
2022-09-28T21:27:12.321Z,3.40
2022-09-28T21:32:09.662Z,4.63
2022-09-28T21:37:06.841Z,4.22
2022-09-28T21:42:04.152Z,4.30
2022-09-28T21:47:01.346Z,4.55
2022-09-28T21:51:58.689Z,4.30
2022-09-28T21:56:56.080Z,3.55
2022-09-28T22:01:54.268Z,4.18
2022-09-28T22:06:51.561Z,4.10
2022-09-28T22:11:49.604Z,3.85
2022-09-28T22:16:46.876Z,4.53
2022-09-28T22:21:44.624Z,4.35
2022-09-28T22:26:42.195Z,4.40
2022-09-28T22:31:41.705Z,3.53
2022-09-28T22:36:39.290Z,4.30
2022-09-28T22:41:36.642Z,4.07
2022-09-28T22:46:33.964Z,3.33
2022-09-28T22:51:31.741Z,3.22
2022-09-28T22:56:29.244Z,3.67
2022-09-28T23:01:29.056Z,3.45
2022-09-28T23:06:28.546Z,3.83
2022-09-28T23:11:25.704Z,3.50
2022-09-28T23:16:25.770Z,3.33
2022-09-28T23:21:26.013Z,3.15
2022-09-28T23:26:26.765Z,3.40
2022-09-28T23:31:28.147Z,3.40
2022-09-28T23:36:25.778Z,3.28
2022-09-28T23:41:23.144Z,3.22
2022-09-28T23:46:21.211Z,3.25
2022-09-28T23:51:19.123Z,3.60
2022-09-28T23:56:16.554Z,4.03
